createdAt,value
2023-11-26T10:18:45.312Z,1.50
2023-11-26T10:21:12.408Z,1.70
2023-11-26T10:23:39.657Z,2.22
2023-11-26T10:26:20.399Z,2.15
2023-11-26T10:29:00.718Z,2.80
2023-11-26T10:31:27.809Z,2.78
2023-11-26T10:34:08.939Z,2.97
2023-11-26T10:36:36.099Z,2.50
2023-11-26T10:39:04.051Z,2.75
2023-11-26T10:41:34.815Z,2.47
2023-11-26T10:44:02.438Z,2.40
2023-11-26T10:46:34.285Z,2.35
2023-11-26T10:49:12.434Z,2.25
2023-11-26T10:51:41.974Z,2.22
2023-11-26T10:54:18.050Z,2.17
2023-11-26T10:56:50.837Z,1.80
2023-11-26T10:59:19.625Z,1.88
2023-11-26T11:01:47.710Z,2.38
2023-11-26T11:04:16.710Z,1.75
2023-11-26T11:06:45.167Z,1.90
2023-11-26T11:09:24.876Z,2.17
2023-11-26T11:11:59.477Z,1.90
2023-11-26T11:14:28.994Z,1.58
2023-11-26T11:16:56.117Z,1.95
2023-11-26T11:19:49.103Z,2.00
2023-11-26T11:22:16.226Z,1.33
2023-11-26T11:24:43.482Z,1.30
2023-11-26T11:27:10.596Z,4.90
2023-11-26T11:29:37.687Z,2.13
2023-11-26T11:32:05.821Z,1.20
2023-11-26T11:34:33.902Z,4.72
2023-11-26T11:37:02.850Z,2.10
2023-11-26T11:39:45.896Z,3.60
2023-11-26T11:42:15.147Z,1.88
2023-11-26T11:44:43.746Z,1.60
2023-11-26T11:47:12.106Z,1.58
2023-11-26T11:50:05.614Z,1.30
2023-11-26T11:52:34.280Z,1.35
2023-11-26T11:55:44.310Z,1.30
2023-11-26T11:58:15.032Z,1.98
2023-11-26T12:00:44.789Z,2.30
2023-11-26T12:03:17.572Z,2.30
2023-11-26T12:05:47.483Z,2.70
2023-11-26T12:08:16.529Z,2.25
2023-11-26T12:10:44.495Z,2.67
2023-11-26T12:13:12.015Z,2.35
2023-11-26T12:15:39.400Z,2.15
2023-11-26T12:18:06.851Z,2.30
2023-11-26T12:20:34.131Z,2.70
2023-11-26T12:23:01.187Z,2.47
2023-11-26T12:25:30.099Z,2.38
2023-11-26T12:28:05.688Z,2.55
2023-11-26T12:30:34.203Z,4.72
2023-11-26T12:33:01.793Z,3.65
2023-11-26T12:35:30.107Z,3.40
2023-11-26T12:37:58.336Z,3.20
2023-11-26T12:40:26.117Z,2.75
2023-11-26T12:42:54.772Z,3.05
2023-11-26T12:45:21.822Z,2.83
2023-11-26T12:47:53.193Z,2.90
2023-11-26T12:50:20.784Z,2.45
2023-11-26T12:52:48.524Z,1.88
2023-11-26T12:55:16.119Z,1.75
2023-11-26T12:57:45.079Z,1.83
2023-11-26T13:00:15.673Z,1.40
2023-11-26T13:02:45.640Z,2.00
2023-11-26T13:05:27.490Z,1.90
2023-11-26T13:07:55.731Z,1.75
2023-11-26T13:10:42.848Z,1.80
2023-11-26T13:13:12.837Z,1.70
2023-11-26T13:15:41.345Z,1.75
2023-11-26T13:18:09.035Z,1.63
2023-11-26T13:20:36.018Z,1.83
2023-11-26T13:23:04.157Z,1.75
2023-11-26T13:25:31.168Z,1.60
2023-11-26T13:27:58.221Z,1.73
2023-11-26T13:30:25.212Z,1.42
2023-11-26T13:32:53.667Z,1.50
2023-11-26T13:35:20.652Z,1.70
2023-11-26T13:37:47.509Z,1.80
2023-11-26T13:40:14.643Z,1.50
2023-11-26T13:42:41.623Z,1.77
2023-11-26T13:45:13.418Z,2.03
2023-11-26T13:47:52.130Z,1.80
2023-11-26T13:50:25.824Z,1.90
2023-11-26T13:52:52.886Z,2.55
2023-11-26T13:55:19.823Z,2.53
2023-11-26T13:57:46.819Z,2.33
2023-11-26T14:00:15.069Z,2.28
2023-11-26T14:02:42.740Z,2.08
2023-11-26T14:05:09.770Z,2.30
2023-11-26T14:07:40.522Z,3.75
2023-11-26T14:10:09.747Z,3.40
2023-11-26T14:12:37.108Z,3.38
2023-11-26T14:15:05.231Z,5.47
2023-11-26T14:17:32.216Z,3.67
2023-11-26T14:19:59.754Z,2.60
2023-11-26T14:22:26.736Z,2.63
2023-11-26T14:24:55.246Z,2.30
2023-11-26T14:27:22.310Z,3.13
2023-11-26T14:29:49.334Z,2.97
2023-11-26T14:32:16.334Z,2.80
2023-11-26T14:34:43.373Z,2.88
2023-11-26T14:37:10.504Z,2.88
2023-11-26T14:39:37.652Z,3.03
2023-11-26T14:42:06.716Z,2.53
2023-11-26T14:44:33.696Z,2.83
2023-11-26T14:47:00.858Z,4.53
2023-11-26T14:49:27.878Z,5.28
2023-11-26T14:51:54.896Z,5.00
2023-11-26T14:54:21.888Z,4.88
2023-11-26T14:56:48.873Z,5.07
2023-11-26T14:59:17.244Z,5.25
2023-11-26T15:01:48.631Z,4.95
2023-11-26T15:04:18.717Z,5.05
2023-11-26T15:06:45.797Z,5.30
2023-11-26T15:09:12.928Z,4.97
2023-11-26T15:11:39.918Z,4.95
2023-11-26T15:14:06.847Z,5.20
2023-11-26T15:16:35.448Z,4.68
2023-11-26T15:19:02.426Z,5.18
2023-11-26T15:21:29.550Z,5.05
2023-11-26T15:23:56.470Z,5.95
2023-11-26T15:26:23.436Z,9.95
2023-11-26T15:28:50.476Z,8.75
2023-11-26T15:31:17.748Z,6.57
2023-11-26T15:33:46.346Z,6.47
2023-11-26T15:36:15.932Z,5.43
2023-11-26T15:38:42.854Z,4.13
2023-11-26T15:41:16.901Z,3.60
2023-11-26T15:43:43.926Z,3.13
2023-11-26T15:46:11.033Z,3.40
2023-11-26T15:48:40.796Z,2.83
2023-11-26T15:51:10.447Z,2.65
2023-11-26T15:53:37.390Z,3.03
2023-11-26T15:56:05.537Z,3.20
2023-11-26T15:58:32.645Z,3.25
2023-11-26T16:00:59.730Z,3.50
2023-11-26T16:03:26.886Z,4.00
2023-11-26T16:05:54.395Z,4.25
2023-11-26T16:08:22.787Z,5.28
2023-11-26T16:10:50.002Z,5.55
2023-11-26T16:13:17.089Z,6.03
2023-11-26T16:15:44.141Z,5.40
2023-11-26T16:18:11.248Z,5.53
2023-11-26T16:20:38.264Z,5.20
2023-11-26T16:23:05.340Z,4.88
2023-11-26T16:25:36.811Z,4.90
2023-11-26T16:28:04.263Z,5.13
2023-11-26T16:30:31.321Z,5.15
2023-11-26T16:32:58.325Z,4.80
2023-11-26T16:35:25.357Z,5.07
2023-11-26T16:37:53.147Z,5.47
2023-11-26T16:40:20.258Z,5.22
2023-11-26T16:42:48.710Z,5.32
2023-11-26T16:45:15.746Z,5.78
2023-11-26T16:47:42.794Z,6.28
2023-11-26T16:50:12.763Z,6.03
2023-11-26T16:52:42.176Z,5.90
2023-11-26T16:55:09.871Z,12.63
2023-11-26T16:57:39.538Z,11.02
2023-11-26T17:00:11.797Z,10.63
2023-11-26T17:02:39.098Z,6.50
2023-11-26T17:05:07.690Z,5.25
2023-11-26T17:07:35.023Z,5.88
2023-11-26T17:10:02.039Z,5.75
2023-11-26T17:12:29.107Z,6.38
2023-11-26T17:14:56.132Z,7.43
2023-11-26T17:17:25.199Z,12.30
2023-11-26T17:19:52.290Z,12.85
2023-11-26T17:22:19.337Z,10.93
2023-11-26T17:24:46.261Z,20.90
2023-11-26T17:27:13.245Z,15.75
2023-11-26T17:29:40.311Z,12.00
2023-11-26T17:32:07.931Z,9.25
2023-11-26T17:34:36.354Z,7.70
2023-11-26T17:37:03.444Z,8.43
2023-11-26T17:39:30.495Z,7.38
2023-11-26T17:41:57.514Z,7.55
2023-11-26T17:44:24.475Z,9.13
2023-11-26T17:46:51.567Z,6.60
2023-11-26T17:49:18.568Z,7.53
2023-11-26T17:51:46.949Z,7.25
2023-11-26T17:54:14.121Z,6.68
2023-11-26T17:56:41.106Z,6.22
2023-11-26T17:59:08.238Z,7.18
2023-11-26T18:01:35.482Z,7.28
2023-11-26T18:04:02.815Z,11.13
2023-11-26T18:06:29.941Z,11.50
2023-11-26T18:08:58.396Z,9.88
2023-11-26T18:11:25.386Z,9.10
2023-11-26T18:13:52.447Z,8.77
2023-11-26T18:16:19.542Z,8.02
2023-11-26T18:18:46.597Z,9.85
2023-11-26T18:21:13.573Z,9.90
2023-11-26T18:23:40.593Z,9.05
2023-11-26T18:26:11.547Z,7.57
2023-11-26T18:28:39.913Z,7.72
2023-11-26T18:31:07.124Z,7.00
2023-11-26T18:33:34.268Z,6.60
2023-11-26T18:36:01.277Z,5.80
2023-11-26T18:38:28.232Z,5.32
2023-11-26T18:40:55.220Z,4.85
2023-11-26T18:43:23.565Z,5.13
2023-11-26T18:45:53.974Z,5.10
2023-11-26T18:48:21.053Z,5.78
2023-11-26T18:50:48.009Z,5.18
2023-11-26T18:53:14.948Z,4.70
2023-11-26T18:55:42.019Z,4.40
2023-11-26T18:58:09.063Z,4.78
2023-11-26T19:00:37.512Z,5.03
2023-11-26T19:03:04.715Z,5.20
2023-11-26T19:05:31.841Z,5.40
2023-11-26T19:07:58.965Z,6.85
2023-11-26T19:10:25.960Z,6.47
2023-11-26T19:12:52.909Z,6.30
2023-11-26T19:15:19.907Z,5.65
2023-11-26T19:17:48.292Z,5.25
2023-11-26T19:20:15.606Z,4.57
2023-11-26T19:22:42.650Z,4.90
2023-11-26T19:25:10.483Z,4.80
2023-11-26T19:27:37.564Z,5.43
2023-11-26T19:30:06.129Z,4.72
2023-11-26T19:32:33.258Z,6.10
2023-11-26T19:35:01.644Z,5.70
2023-11-26T19:37:28.763Z,5.20
2023-11-26T19:39:55.731Z,4.72
2023-11-26T19:42:22.984Z,5.03
2023-11-26T19:44:50.000Z,5.13
2023-11-26T19:47:17.111Z,4.70
2023-11-26T19:49:44.262Z,4.68
2023-11-26T19:52:12.702Z,4.32
2023-11-26T19:54:39.810Z,5.35
2023-11-26T19:57:06.845Z,6.15
2023-11-26T19:59:35.531Z,6.03
2023-11-26T20:02:02.770Z,8.20
2023-11-26T20:04:29.840Z,6.40
2023-11-26T20:06:56.924Z,5.28
2023-11-26T20:09:25.317Z,6.55
2023-11-26T20:11:52.333Z,6.70
2023-11-26T20:14:19.378Z,4.75
2023-11-26T20:16:46.543Z,6.57
2023-11-26T20:19:13.843Z,4.25
2023-11-26T20:21:41.706Z,4.82
2023-11-26T20:24:09.250Z,6.07
2023-11-26T20:26:37.650Z,17.70
2023-11-26T20:29:04.681Z,36.58
2023-11-26T20:31:31.741Z,12.93
2023-11-26T20:33:58.907Z,8.38
2023-11-26T20:36:26.039Z,6.03
2023-11-26T20:38:53.097Z,5.38
2023-11-26T20:41:20.468Z,5.88
2023-11-26T20:43:48.857Z,5.32
2023-11-26T20:46:20.027Z,5.93
2023-11-26T20:48:47.222Z,4.88
2023-11-26T20:51:18.656Z,5.38
2023-11-26T20:53:47.708Z,4.60
2023-11-26T20:56:22.847Z,6.30
2023-11-26T20:58:51.336Z,6.55
2023-11-26T21:01:18.434Z,5.80
2023-11-26T21:03:45.713Z,6.75
2023-11-26T21:06:13.091Z,8.35
2023-11-26T21:08:40.409Z,6.97
2023-11-26T21:11:09.684Z,5.88
2023-11-26T21:13:38.658Z,5.72
2023-11-26T21:16:08.113Z,6.00
2023-11-26T21:18:35.431Z,7.75
2023-11-26T21:21:02.571Z,5.60
2023-11-26T21:23:29.724Z,7.15
2023-11-26T21:25:56.801Z,5.90
2023-11-26T21:28:25.996Z,6.55
2023-11-26T21:30:53.073Z,6.72
2023-11-26T21:33:21.499Z,8.65
2023-11-26T21:35:48.506Z,6.38
2023-11-26T21:38:15.523Z,6.72
2023-11-26T21:40:47.842Z,5.13
2023-11-26T21:43:20.634Z,5.47
2023-11-26T21:45:47.654Z,5.20
2023-11-26T21:48:18.943Z,5.63
2023-11-26T21:50:47.700Z,4.97
2023-11-26T21:53:14.682Z,5.35
2023-11-26T21:55:41.727Z,5.00
2023-11-26T21:58:08.752Z,4.85
2023-11-26T22:00:35.892Z,4.22
2023-11-26T22:03:03.002Z,5.55
2023-11-26T22:05:29.913Z,5.70
2023-11-26T22:07:58.269Z,5.22
2023-11-26T22:10:25.216Z,5.68
2023-11-26T22:12:52.127Z,5.32
2023-11-26T22:15:19.476Z,6.15
2023-11-26T22:17:46.444Z,5.95
2023-11-26T22:20:13.849Z,5.95
2023-11-26T22:22:43.470Z,5.45
2023-11-26T22:25:12.644Z,6.50
2023-11-26T22:27:39.636Z,6.47
2023-11-26T22:30:11.358Z,5.93
2023-11-26T22:32:39.721Z,5.65
2023-11-26T22:35:09.736Z,6.32
2023-11-26T22:37:37.297Z,5.68
2023-11-26T22:40:16.342Z,5.40
2023-11-26T22:42:59.271Z,6.13
2023-11-26T22:45:33.698Z,6.03
2023-11-26T22:48:00.694Z,5.90
2023-11-26T22:50:29.036Z,5.88
2023-11-26T22:52:56.097Z,4.95
2023-11-26T22:55:23.019Z,5.72
2023-11-26T22:57:51.422Z,5.40
2023-11-26T23:00:18.664Z,4.47
2023-11-26T23:02:45.732Z,6.18
2023-11-26T23:05:12.831Z,7.25
2023-11-26T23:07:39.848Z,6.25
2023-11-26T23:10:08.342Z,7.30
2023-11-26T23:12:35.459Z,6.85
2023-11-26T23:15:04.528Z,6.43
2023-11-26T23:17:31.656Z,5.32
2023-11-26T23:19:58.732Z,5.97
2023-11-26T23:22:26.368Z,6.10
2023-11-26T23:24:53.342Z,5.53
2023-11-26T23:27:20.448Z,6.40
2023-11-26T23:29:47.374Z,5.95
2023-11-26T23:32:15.677Z,6.43
2023-11-26T23:34:42.885Z,5.97
2023-11-26T23:37:09.843Z,6.43
2023-11-26T23:39:36.781Z,6.32
2023-11-26T23:42:04.067Z,6.47
2023-11-26T23:44:31.000Z,6.30
2023-11-26T23:46:57.995Z,5.63
2023-11-26T23:49:26.399Z,5.97
2023-11-26T23:51:53.367Z,6.15
2023-11-26T23:54:20.384Z,5.88
2023-11-26T23:56:47.322Z,6.55
2023-11-26T23:59:14.229Z,7.20
